createdAt,value
2019-03-06T00:00:44.971Z,99027.83
2019-03-06T00:03:19.058Z,99024.53
2019-03-06T00:05:51.519Z,99020.02
2019-03-06T00:08:23.922Z,99017.16
2019-03-06T00:10:56.303Z,99014.28
2019-03-06T00:13:28.710Z,99018.80
2019-03-06T00:16:01.115Z,99016.69
2019-03-06T00:18:33.594Z,99011.91
2019-03-06T00:21:05.967Z,99010.40
2019-03-06T00:23:38.444Z,99009.97
2019-03-06T00:26:10.839Z,99005.19
2019-03-06T00:28:43.249Z,99010.30
2019-03-06T00:31:16.691Z,99012.85
2019-03-06T00:33:49.096Z,99007.09
2019-03-06T00:36:23.273Z,99005.09
2019-03-06T00:38:55.661Z,99014.13
2019-03-06T00:41:32.622Z,99012.00
2019-03-06T00:44:05.187Z,99006.55
2019-03-06T00:46:37.596Z,99001.95
2019-03-06T00:49:10.003Z,98998.19
2019-03-06T00:51:42.385Z,98994.84
2019-03-06T00:54:15.019Z,98999.58
2019-03-06T00:56:47.415Z,98998.09
2019-03-06T00:59:19.810Z,98997.55
2019-03-06T01:01:52.221Z,99000.54
2019-03-06T01:04:24.700Z,98993.84
2019-03-06T01:06:57.084Z,98990.93
2019-03-06T01:09:29.506Z,98985.78
2019-03-06T01:12:01.875Z,98985.19
2019-03-06T01:14:34.270Z,98982.21
2019-03-06T01:17:06.661Z,98966.39
2019-03-06T01:19:39.046Z,98968.30
2019-03-06T01:22:11.516Z,98957.14
2019-03-06T01:24:44.010Z,98953.73
2019-03-06T01:27:16.401Z,98952.04
2019-03-06T01:29:48.810Z,98946.95
2019-03-06T01:32:21.191Z,98951.30
2019-03-06T01:35:21.561Z,98947.10
2019-03-06T01:38:12.861Z,98944.88
2019-03-06T01:40:58.473Z,98934.69
2019-03-06T01:43:35.863Z,98930.28
2019-03-06T01:46:08.269Z,98926.53
2019-03-06T01:48:40.654Z,98928.95
2019-03-06T01:51:13.068Z,98934.61
2019-03-06T01:53:45.370Z,98932.92
2019-03-06T01:56:17.797Z,98928.47
2019-03-06T01:58:50.193Z,98927.63
2019-03-06T02:01:22.649Z,98921.52
2019-03-06T02:03:55.120Z,98915.30
2019-03-06T02:06:27.519Z,98921.69
2019-03-06T02:09:00.976Z,98921.80
2019-03-06T02:11:34.971Z,98920.47
2019-03-06T02:14:07.295Z,98919.67
2019-03-06T02:16:39.733Z,98916.87
2019-03-06T02:19:12.100Z,98918.36
2019-03-06T02:21:45.336Z,98909.17
2019-03-06T02:24:17.653Z,98910.36
2019-03-06T02:26:50.053Z,98908.65
2019-03-06T02:29:22.409Z,98904.03
2019-03-06T02:31:54.818Z,98891.29
2019-03-06T02:34:27.187Z,98879.19
2019-03-06T02:36:59.581Z,98885.04
2019-03-06T02:39:31.996Z,98894.70
2019-03-06T02:42:04.481Z,98887.63
2019-03-06T02:44:39.777Z,98872.47
2019-03-06T02:47:11.008Z,98869.06
2019-03-06T02:49:43.412Z,98878.39
2019-03-06T02:52:15.816Z,98890.51
2019-03-06T02:54:48.205Z,98876.85
2019-03-06T02:57:20.640Z,98879.09
2019-03-06T03:00:10.580Z,98873.83
2019-03-06T03:03:08.189Z,98867.38
2019-03-06T03:05:45.845Z,98866.57
2019-03-06T03:08:18.249Z,98866.56
2019-03-06T03:10:50.814Z,98862.05
2019-03-06T03:13:23.298Z,98852.56
2019-03-06T03:15:55.691Z,98853.67
2019-03-06T03:18:28.104Z,98854.20
2019-03-06T03:21:00.687Z,98855.86
2019-03-06T03:23:33.166Z,98845.95
2019-03-06T03:26:05.574Z,98846.69
2019-03-06T03:28:37.974Z,98846.74
2019-03-06T03:31:10.472Z,98844.27
2019-03-06T03:33:43.941Z,98840.06
2019-03-06T03:36:16.317Z,98843.73
2019-03-06T03:38:48.730Z,98844.11
2019-03-06T03:41:21.106Z,98843.25
2019-03-06T03:43:53.439Z,98835.72
2019-03-06T03:46:25.907Z,98834.87
2019-03-06T03:48:58.304Z,98837.43
2019-03-06T03:51:30.688Z,98823.41
2019-03-06T03:54:03.191Z,98821.47
2019-03-06T03:56:35.600Z,98816.17
2019-03-06T03:59:08.046Z,98808.67
2019-03-06T04:01:40.349Z,98802.20
2019-03-06T04:04:12.746Z,98802.80
2019-03-06T04:06:45.147Z,98810.97
2019-03-06T04:09:17.561Z,98813.83
2019-03-06T04:11:49.917Z,98811.08
2019-03-06T04:14:22.318Z,98810.11
2019-03-06T04:16:54.689Z,98810.05
2019-03-06T04:19:27.094Z,98811.80
2019-03-06T04:21:59.564Z,98816.23
2019-03-06T04:24:32.182Z,98813.63
2019-03-06T04:27:04.626Z,98815.38
2019-03-06T04:29:37.057Z,98813.27
2019-03-06T04:32:09.445Z,98812.26
2019-03-06T04:34:42.125Z,98809.86
2019-03-06T04:37:14.526Z,98800.48
2019-03-06T04:39:46.920Z,98805.03
2019-03-06T04:42:19.307Z,98804.03
2019-03-06T04:44:51.983Z,98802.12
2019-03-06T04:47:24.358Z,98809.02
2019-03-06T04:49:56.760Z,98801.60
2019-03-06T04:52:29.139Z,98796.66
2019-03-06T04:55:01.652Z,98800.27
2019-03-06T04:57:34.143Z,98793.85
2019-03-06T05:00:08.103Z,98786.64
2019-03-06T05:02:40.420Z,98780.02
2019-03-06T05:05:15.948Z,98773.92
2019-03-06T05:07:48.420Z,98761.73
2019-03-06T05:10:20.774Z,98766.83
2019-03-06T05:12:53.234Z,98762.36
2019-03-06T05:15:25.767Z,98761.25
2019-03-06T05:18:07.544Z,98755.58
2019-03-06T05:20:39.946Z,98765.23
2019-03-06T05:23:12.329Z,98763.47
2019-03-06T05:25:44.728Z,98759.09
2019-03-06T05:28:17.098Z,98762.73
2019-03-06T05:30:49.653Z,98761.52
2019-03-06T05:33:22.104Z,98759.19
2019-03-06T05:36:44.862Z,98763.79
2019-03-06T05:39:17.233Z,98763.06
2019-03-06T05:41:49.651Z,98758.28
2019-03-06T05:44:22.060Z,98748.63
2019-03-06T05:46:54.442Z,98751.91
2019-03-06T05:49:26.858Z,98738.78
2019-03-06T05:51:59.266Z,98738.44
2019-03-06T05:54:31.583Z,98728.04
2019-03-06T05:57:04.186Z,98718.51
2019-03-06T05:59:36.594Z,98719.68
2019-03-06T06:02:10.327Z,98714.16
2019-03-06T06:04:42.945Z,98715.80
2019-03-06T06:07:17.073Z,98719.52
2019-03-06T06:09:49.489Z,98725.13
2019-03-06T06:12:21.803Z,98718.87
2019-03-06T06:14:54.263Z,98718.13
2019-03-06T06:17:26.860Z,98713.25
2019-03-06T06:19:59.259Z,98704.69
2019-03-06T06:22:50.582Z,98698.37
2019-03-06T06:25:22.999Z,98693.97
2019-03-06T06:27:55.399Z,98694.97
2019-03-06T06:30:27.885Z,98680.28
2019-03-06T06:33:00.276Z,98682.30
2019-03-06T06:35:32.677Z,98682.55
2019-03-06T06:38:05.079Z,98669.50
2019-03-06T06:40:41.223Z,98666.42
2019-03-06T06:43:13.709Z,98660.59
2019-03-06T06:45:46.094Z,98664.34
2019-03-06T06:48:23.623Z,98662.27
2019-03-06T06:51:39.107Z,98659.23
2019-03-06T06:54:50.193Z,98659.78
2019-03-06T06:58:18.744Z,98661.13
2019-03-06T07:01:51.688Z,98654.41
2019-03-06T07:05:41.654Z,98647.02
2019-03-06T07:08:32.986Z,98636.45
2019-03-06T07:11:22.869Z,98621.87
2019-03-06T07:14:12.732Z,98622.91
2019-03-06T07:17:04.279Z,98617.42
2019-03-06T07:19:58.748Z,98606.23
2019-03-06T07:22:52.840Z,98603.95
2019-03-06T07:25:39.601Z,98600.72
2019-03-06T07:28:19.678Z,98597.64
2019-03-06T07:31:18.130Z,98602.05
2019-03-06T07:34:12.498Z,98589.09
2019-03-06T07:36:52.699Z,98581.41
2019-03-06T07:39:32.076Z,98582.55
2019-03-06T07:42:28.316Z,98588.26
2019-03-06T07:45:43.112Z,98591.91
2019-03-06T07:48:33.063Z,98591.91
2019-03-06T07:51:23.345Z,98596.82
2019-03-06T07:54:11.051Z,98602.02
2019-03-06T07:56:54.466Z,98582.28
2019-03-06T07:59:26.862Z,98580.36
2019-03-06T08:02:04.584Z,98574.34
2019-03-06T08:04:36.997Z,98574.13
2019-03-06T08:07:14.058Z,98570.94
2019-03-06T08:09:46.560Z,98574.95
2019-03-06T08:12:39.999Z,98567.77
2019-03-06T08:15:33.184Z,98569.39
2019-03-06T08:18:17.865Z,98566.22
2019-03-06T08:21:07.869Z,98561.75
2019-03-06T08:24:02.049Z,98566.07
2019-03-06T08:26:34.883Z,98563.30
2019-03-06T08:29:07.282Z,98558.70
2019-03-06T08:31:45.704Z,98555.43
2019-03-06T08:34:18.114Z,98561.80
2019-03-06T08:36:50.697Z,98568.55
2019-03-06T08:39:24.237Z,98564.61
2019-03-06T08:41:57.473Z,98559.54
2019-03-06T08:44:29.873Z,98560.25
2019-03-06T08:47:12.135Z,98552.66
2019-03-06T08:50:02.190Z,98547.09
2019-03-06T08:52:53.197Z,98544.92
2019-03-06T08:55:47.602Z,98537.24
2019-03-06T08:58:28.908Z,98526.62
2019-03-06T09:01:43.376Z,98527.18
2019-03-06T09:04:33.439Z,98509.50
2019-03-06T09:07:12.467Z,98499.31
2019-03-06T09:10:06.637Z,98497.93
2019-03-06T09:12:53.299Z,98492.13
2019-03-06T09:15:56.921Z,98483.72
2019-03-06T09:18:47.319Z,98480.96
2019-03-06T09:21:35.660Z,98479.34
2019-03-06T09:24:26.014Z,98478.31
2019-03-06T09:27:17.331Z,98469.27
2019-03-06T09:30:15.772Z,98461.21
2019-03-06T09:32:51.794Z,98451.80
2019-03-06T09:35:38.413Z,98438.72
2019-03-06T09:38:28.676Z,98443.77
2019-03-06T09:41:19.031Z,98440.81
2019-03-06T09:44:07.729Z,98429.47
2019-03-06T09:47:05.625Z,98414.05
2019-03-06T09:49:55.515Z,98409.58
2019-03-06T09:52:45.676Z,98404.56
2019-03-06T09:55:55.199Z,98408.23
2019-03-06T09:58:33.749Z,98404.88
2019-03-06T10:01:31.424Z,98410.41
2019-03-06T10:04:40.884Z,98418.86
2019-03-06T10:07:30.714Z,98414.27
2019-03-06T10:10:30.957Z,98402.17
2019-03-06T10:13:20.047Z,98402.77
2019-03-06T10:16:20.295Z,98404.43
2019-03-06T10:18:57.253Z,98404.17
2019-03-06T10:21:29.726Z,98399.13
2019-03-06T10:24:02.114Z,98398.23
2019-03-06T10:26:34.555Z,98393.64
2019-03-06T10:29:06.942Z,98397.37
2019-03-06T10:31:39.430Z,98393.06
2019-03-06T10:34:11.846Z,98392.93
2019-03-06T10:36:44.431Z,98386.17
2019-03-06T10:39:17.315Z,98375.59
2019-03-06T10:41:49.705Z,98369.63
2019-03-06T10:44:28.774Z,98372.39
2019-03-06T10:46:56.178Z,98366.27
2019-03-06T10:49:30.123Z,98358.52
2019-03-06T10:52:02.576Z,98364.34
2019-03-06T10:54:37.882Z,98360.30
2019-03-06T10:57:09.022Z,98352.72
2019-03-06T10:59:41.587Z,98349.83
2019-03-06T11:02:13.991Z,98350.16
2019-03-06T11:05:05.299Z,98343.52
2019-03-06T11:07:37.766Z,98340.95
2019-03-06T11:10:10.841Z,98344.14
2019-03-06T11:12:43.244Z,98343.31
2019-03-06T11:15:17.499Z,98348.14
2019-03-06T11:17:50.169Z,98331.35
2019-03-06T11:20:26.979Z,98326.49
2019-03-06T11:23:00.379Z,98323.08
2019-03-06T11:25:33.486Z,98321.12
2019-03-06T11:28:06.864Z,98315.93
2019-03-06T11:30:47.008Z,98310.08
2019-03-06T11:33:19.859Z,98299.89
2019-03-06T11:35:52.912Z,98295.84
2019-03-06T11:38:25.374Z,98287.59
2019-03-06T11:40:57.778Z,98277.44
2019-03-06T11:43:30.238Z,98271.14
2019-03-06T11:46:02.714Z,98268.53
2019-03-06T11:48:35.292Z,98261.59
2019-03-06T11:51:07.750Z,98253.37
2019-03-06T11:53:40.161Z,98244.80
2019-03-06T11:56:12.585Z,98236.11
2019-03-06T11:58:45.169Z,98233.18
2019-03-06T12:01:20.633Z,98224.28
2019-03-06T12:03:53.153Z,98227.28
2019-03-06T12:06:25.541Z,98223.75
2019-03-06T12:08:58.017Z,98220.49
2019-03-06T12:11:31.465Z,98216.91
2019-03-06T12:14:03.865Z,98219.59
2019-03-06T12:16:41.766Z,98214.59
2019-03-06T12:19:10.351Z,98212.16
2019-03-06T12:21:43.317Z,98207.45
2019-03-06T12:24:15.977Z,98198.73
2019-03-06T12:26:48.361Z,98197.59
2019-03-06T12:29:21.834Z,98201.74
2019-03-06T12:31:54.213Z,98200.28
2019-03-06T12:34:26.616Z,98190.62
2019-03-06T12:36:58.976Z,98180.19
2019-03-06T12:39:32.735Z,98179.70
2019-03-06T12:42:13.737Z,98167.16
2019-03-06T12:44:39.243Z,98165.08
2019-03-06T12:47:11.626Z,98158.18
2019-03-06T12:49:44.027Z,98156.73
2019-03-06T12:52:16.409Z,98149.37
2019-03-06T12:54:48.800Z,98155.47
2019-03-06T12:57:21.195Z,98132.87
2019-03-06T12:59:54.670Z,98127.42
2019-03-06T13:02:27.095Z,98125.02
2019-03-06T13:04:59.503Z,98112.17
2019-03-06T13:07:32.148Z,98105.77
2019-03-06T13:10:05.045Z,98105.73
2019-03-06T13:12:38.308Z,98093.56
2019-03-06T13:15:14.289Z,98088.45
2019-03-06T13:17:46.670Z,98082.48
2019-03-06T13:20:19.080Z,98084.59
2019-03-06T13:22:52.169Z,98066.78
2019-03-06T13:25:42.598Z,98066.46
2019-03-06T13:28:33.857Z,98061.30
2019-03-06T13:31:24.188Z,98066.42
2019-03-06T13:34:10.854Z,98067.41
2019-03-06T13:36:43.408Z,98069.51
2019-03-06T13:39:17.201Z,98061.00
2019-03-06T13:41:49.733Z,98068.53
2019-03-06T13:44:22.102Z,98061.64
2019-03-06T13:46:54.435Z,98063.55
2019-03-06T13:49:26.812Z,98050.89
2019-03-06T13:51:59.223Z,98047.98
2019-03-06T13:54:31.754Z,98051.51
2019-03-06T13:57:05.211Z,98048.61
2019-03-06T13:59:37.576Z,98041.72
2019-03-06T14:02:09.993Z,98047.32
2019-03-06T14:04:42.369Z,98039.00
2019-03-06T14:07:14.841Z,98039.14
2019-03-06T14:09:48.295Z,98040.42
2019-03-06T14:12:20.628Z,98026.45
2019-03-06T14:14:53.004Z,98027.77
2019-03-06T14:17:25.406Z,98024.69
2019-03-06T14:19:57.799Z,98032.09
2019-03-06T14:22:30.222Z,98025.35
2019-03-06T14:25:02.666Z,98016.52
2019-03-06T14:27:36.158Z,98012.80
2019-03-06T14:30:10.500Z,98010.26
2019-03-06T14:32:42.834Z,98014.61
2019-03-06T14:35:15.252Z,98010.09
2019-03-06T14:37:47.721Z,98003.22
2019-03-06T14:40:28.229Z,98006.27
2019-03-06T14:43:00.742Z,98003.69
2019-03-06T14:45:33.180Z,98002.42
2019-03-06T14:48:05.655Z,97998.39
2019-03-06T14:50:37.959Z,97993.91
2019-03-06T14:53:10.300Z,97999.84
2019-03-06T14:55:44.248Z,97993.89
2019-03-06T14:58:16.654Z,97987.30
2019-03-06T15:00:49.202Z,97978.95
2019-03-06T15:03:25.806Z,97974.00
2019-03-06T15:05:58.198Z,97972.38
2019-03-06T15:08:30.671Z,97961.94
2019-03-06T15:11:03.114Z,97961.31
2019-03-06T15:13:35.479Z,97960.34
2019-03-06T15:16:09.446Z,97951.02
2019-03-06T15:18:41.834Z,97952.16
2019-03-06T15:21:14.267Z,97954.55
2019-03-06T15:23:46.701Z,97953.75
2019-03-06T15:26:20.279Z,97958.39
2019-03-06T15:28:52.684Z,97950.70
2019-03-06T15:31:25.066Z,97948.59
2019-03-06T15:33:57.472Z,97946.83
2019-03-06T15:36:29.866Z,97944.58
2019-03-06T15:39:03.747Z,97942.66
2019-03-06T15:41:37.785Z,97944.28
2019-03-06T15:44:10.189Z,97947.16
2019-03-06T15:46:42.498Z,97948.75
2019-03-06T15:49:14.908Z,97943.94
2019-03-06T15:51:47.300Z,97941.54
2019-03-06T15:54:19.705Z,97937.37
2019-03-06T15:56:52.200Z,97937.67
2019-03-06T15:59:24.922Z,97933.83
2019-03-06T16:01:57.303Z,97934.96
2019-03-06T16:04:29.727Z,97935.44
2019-03-06T16:07:02.131Z,97934.31
2019-03-06T16:09:35.219Z,97919.40
2019-03-06T16:12:07.590Z,97914.09
2019-03-06T16:14:39.990Z,97911.19
2019-03-06T16:17:12.381Z,97909.93
2019-03-06T16:19:44.816Z,97918.73
2019-03-06T16:22:17.483Z,97903.50
2019-03-06T16:24:49.877Z,97912.17
2019-03-06T16:27:22.252Z,97910.23
2019-03-06T16:29:54.655Z,97907.34
2019-03-06T16:32:28.036Z,97915.21
2019-03-06T16:35:00.461Z,97918.42
2019-03-06T16:37:32.868Z,97920.83
2019-03-06T16:40:09.070Z,97921.77
2019-03-06T16:42:41.473Z,97922.25
2019-03-06T16:45:13.877Z,97920.81
2019-03-06T16:47:46.728Z,97925.14
2019-03-06T16:50:19.141Z,97919.84
2019-03-06T16:52:51.519Z,97923.05
2019-03-06T16:55:24.324Z,97919.34
2019-03-06T16:57:57.995Z,97927.05
2019-03-06T17:00:33.671Z,97923.82
2019-03-06T17:03:06.012Z,97926.88
2019-03-06T17:05:38.483Z,97926.41
2019-03-06T17:08:11.368Z,97929.91
2019-03-06T17:10:43.878Z,97931.84
2019-03-06T17:13:16.280Z,97939.53
2019-03-06T17:15:48.898Z,97936.78
2019-03-06T17:18:21.494Z,97931.99
2019-03-06T17:20:54.647Z,97927.33
2019-03-06T17:23:27.134Z,97926.06
2019-03-06T17:25:59.526Z,97934.06
2019-03-06T17:28:31.940Z,97944.66
2019-03-06T17:31:04.512Z,97944.64
2019-03-06T17:33:36.887Z,97949.80
2019-03-06T17:36:09.290Z,97942.70
2019-03-06T17:38:41.747Z,97937.89
2019-03-06T17:41:17.437Z,97927.32
2019-03-06T17:43:49.936Z,97924.27
2019-03-06T17:46:22.371Z,97918.00
2019-03-06T17:48:54.750Z,97919.25
2019-03-06T17:51:27.431Z,97905.29
2019-03-06T17:53:59.732Z,97894.54
2019-03-06T17:56:32.161Z,97889.55
2019-03-06T17:59:04.540Z,97882.66
2019-03-06T18:01:37.014Z,97867.89
2019-03-06T18:04:15.593Z,97869.81
2019-03-06T18:06:49.070Z,97869.32
2019-03-06T18:09:21.452Z,97878.14
2019-03-06T18:11:53.855Z,97879.45
2019-03-06T18:14:26.312Z,97870.13
2019-03-06T18:16:58.714Z,97860.34
2019-03-06T18:19:31.103Z,97864.49
2019-03-06T18:22:03.511Z,97862.42
2019-03-06T18:24:35.901Z,97863.85
2019-03-06T18:27:08.382Z,97857.89
2019-03-06T18:29:42.336Z,97848.12
2019-03-06T18:32:17.590Z,97839.47
2019-03-06T18:34:49.952Z,97835.28
2019-03-06T18:37:22.641Z,97833.50
2019-03-06T18:39:55.007Z,97836.55
2019-03-06T18:42:27.421Z,97833.67
2019-03-06T18:45:03.843Z,97830.14
2019-03-06T18:47:36.333Z,97822.75
2019-03-06T18:50:11.343Z,97814.90
2019-03-06T18:52:43.881Z,97807.83
2019-03-06T18:55:16.569Z,97808.14
2019-03-06T18:57:49.175Z,97797.87
2019-03-06T19:00:22.916Z,97800.29
2019-03-06T19:02:55.478Z,97796.25
2019-03-06T19:05:27.951Z,97787.42
2019-03-06T19:08:00.382Z,97786.46
2019-03-06T19:10:32.737Z,97787.42
2019-03-06T19:13:05.235Z,97776.03
2019-03-06T19:15:37.614Z,97769.77
2019-03-06T19:18:10.064Z,97761.57
2019-03-06T19:20:42.464Z,97761.24
2019-03-06T19:23:15.134Z,97754.02
2019-03-06T19:25:47.594Z,97750.64
2019-03-06T19:28:20.007Z,97754.02
2019-03-06T19:30:52.387Z,97750.97
2019-03-06T19:33:24.714Z,97748.88
2019-03-06T19:35:57.275Z,97740.36
2019-03-06T19:38:29.710Z,97743.72
2019-03-06T19:41:02.096Z,97729.13
2019-03-06T19:43:34.491Z,97730.58
2019-03-06T19:46:06.865Z,97720.16
2019-03-06T19:48:39.289Z,97722.87
2019-03-06T19:51:11.665Z,97723.02
2019-03-06T19:53:44.085Z,97717.90
2019-03-06T19:56:18.486Z,97714.22
2019-03-06T19:58:52.207Z,97718.88
2019-03-06T20:01:24.570Z,97725.60
2019-03-06T20:03:56.962Z,97721.89
2019-03-06T20:06:29.352Z,97713.73
2019-03-06T20:09:01.745Z,97713.55
2019-03-06T20:11:35.885Z,97700.73
2019-03-06T20:14:08.278Z,97704.26
2019-03-06T20:16:40.578Z,97697.21
2019-03-06T20:19:13.081Z,97697.20
2019-03-06T20:21:45.454Z,97704.09
2019-03-06T20:24:18.930Z,97710.34
2019-03-06T20:26:51.310Z,97710.03
2019-03-06T20:29:23.718Z,97716.73
2019-03-06T20:31:56.092Z,97720.11
2019-03-06T20:34:28.494Z,97719.64
2019-03-06T20:37:00.862Z,97711.62
2019-03-06T20:39:33.189Z,97716.89
2019-03-06T20:42:05.567Z,97692.87
2019-03-06T20:44:38.039Z,97702.83
2019-03-06T20:47:10.527Z,97709.21
2019-03-06T20:49:43.298Z,97694.51
2019-03-06T20:52:16.677Z,97678.96
2019-03-06T20:54:49.082Z,97685.86
2019-03-06T20:57:21.487Z,97682.33
2019-03-06T20:59:54.173Z,97680.91
2019-03-06T21:02:27.617Z,97684.61
2019-03-06T21:05:00.414Z,97674.99
2019-03-06T21:07:35.592Z,97666.33
2019-03-06T21:10:07.165Z,97661.21
2019-03-06T21:12:39.553Z,97652.72
2019-03-06T21:15:13.668Z,97641.84
2019-03-06T21:17:46.059Z,97637.20
2019-03-06T21:20:19.256Z,97634.02
2019-03-06T21:22:51.633Z,97629.52
2019-03-06T21:25:24.329Z,97629.05
2019-03-06T21:27:56.899Z,97637.05
2019-03-06T21:30:32.990Z,97645.06
2019-03-06T21:33:05.406Z,97637.39
2019-03-06T21:35:37.806Z,97634.69
2019-03-06T21:38:10.180Z,97631.94
2019-03-06T21:40:42.606Z,97634.50
2019-03-06T21:43:14.969Z,97639.31
2019-03-06T21:45:47.373Z,97636.59
2019-03-06T21:48:19.757Z,97638.84
2019-03-06T21:50:52.152Z,97641.26
2019-03-06T21:53:24.531Z,97637.24
2019-03-06T21:55:56.960Z,97639.48
2019-03-06T21:58:29.685Z,97637.58
2019-03-06T22:01:02.242Z,97636.13
2019-03-06T22:03:34.953Z,97641.59
2019-03-06T22:06:08.435Z,97647.52
2019-03-06T22:08:40.807Z,97652.65
2019-03-06T22:11:13.207Z,97650.88
2019-03-06T22:13:45.612Z,97658.09
2019-03-06T22:16:18.026Z,97652.64
2019-03-06T22:18:50.410Z,97662.27
2019-03-06T22:21:22.804Z,97661.95
2019-03-06T22:23:55.343Z,97666.26
2019-03-06T22:26:27.998Z,97661.63
2019-03-06T22:29:00.346Z,97653.61
2019-03-06T22:31:32.969Z,97649.75
2019-03-06T22:34:06.414Z,97639.81
2019-03-06T22:36:38.822Z,97627.16
2019-03-06T22:39:11.472Z,97615.13
2019-03-06T22:41:43.875Z,97602.47
2019-03-06T22:44:16.248Z,97601.98
2019-03-06T22:46:48.657Z,97596.55
2019-03-06T22:49:21.031Z,97594.29
2019-03-06T22:51:53.433Z,97592.06
2019-03-06T22:54:25.803Z,97585.80
2019-03-06T22:56:59.301Z,97588.20
2019-03-06T22:59:31.681Z,97589.16
2019-03-06T23:02:04.170Z,97593.34
2019-03-06T23:04:36.609Z,97589.98
2019-03-06T23:07:09.007Z,97589.19
2019-03-06T23:09:41.377Z,97588.85
2019-03-06T23:12:13.890Z,97582.77
2019-03-06T23:14:46.277Z,97583.25
2019-03-06T23:17:18.712Z,97580.69
2019-03-06T23:19:52.623Z,97584.66
2019-03-06T23:22:25.269Z,97576.34
2019-03-06T23:24:57.665Z,97569.14
2019-03-06T23:27:30.074Z,97569.92
2019-03-06T23:30:02.454Z,97563.38
2019-03-06T23:32:36.448Z,97551.34
2019-03-06T23:35:09.313Z,97556.16
2019-03-06T23:37:42.792Z,97545.72
2019-03-06T23:40:15.188Z,97545.91
2019-03-06T23:42:48.201Z,97554.23
2019-03-06T23:45:21.745Z,97539.81
2019-03-06T23:47:54.177Z,97542.69
2019-03-06T23:50:26.553Z,97532.74
2019-03-06T23:53:06.794Z,97536.11
2019-03-06T23:55:39.279Z,97528.58
2019-03-06T23:58:11.697Z,97524.41
